createdAt,value
2022-10-15T00:00:18.353Z,100559.16
2022-10-15T00:02:45.994Z,100557.47
2022-10-15T00:05:13.645Z,100556.66
2022-10-15T00:07:42.674Z,100552.47
2022-10-15T00:10:10.679Z,100560.59
2022-10-15T00:12:38.433Z,100558.94
2022-10-15T00:15:07.042Z,100558.09
2022-10-15T00:17:35.291Z,100559.06
2022-10-15T00:20:03.442Z,100558.22
2022-10-15T00:22:31.090Z,100555.72
2022-10-15T00:25:00.223Z,100548.22
2022-10-15T00:27:28.409Z,100551.00
2022-10-15T00:29:56.030Z,100552.97
2022-10-15T00:32:23.912Z,100560.25
2022-10-15T00:34:51.823Z,100545.31
2022-10-15T00:37:20.981Z,100543.78
2022-10-15T00:39:48.733Z,100546.59
2022-10-15T00:42:18.353Z,100545.03
2022-10-15T00:44:52.568Z,100538.19
2022-10-15T00:47:26.134Z,100534.47
2022-10-15T00:49:59.655Z,100536.16
2022-10-15T00:52:33.022Z,100549.13
2022-10-15T00:55:03.480Z,100539.78
2022-10-15T00:57:34.569Z,100544.13
2022-10-15T01:00:06.314Z,100550.41
2022-10-15T01:02:34.087Z,100561.84
2022-10-15T01:05:01.846Z,100555.84
2022-10-15T01:07:29.509Z,100548.03
2022-10-15T01:09:57.113Z,100541.88
2022-10-15T01:12:33.508Z,100547.50
2022-10-15T01:15:08.048Z,100539.69
2022-10-15T01:17:40.200Z,100537.31
2022-10-15T01:20:28.014Z,100530.66
2022-10-15T01:23:08.696Z,100542.94
2022-10-15T01:25:45.759Z,100530.25
2022-10-15T01:28:21.972Z,100520.88
2022-10-15T01:30:55.376Z,100535.84
2022-10-15T01:33:26.995Z,100529.69
2022-10-15T01:35:56.254Z,100527.88
2022-10-15T01:38:30.808Z,100515.47
2022-10-15T01:41:00.676Z,100520.50
2022-10-15T01:43:32.060Z,100527.03
2022-10-15T01:46:05.299Z,100528.00
2022-10-15T01:48:34.917Z,100524.25
2022-10-15T01:51:06.358Z,100511.72
2022-10-15T01:53:34.881Z,100530.66
2022-10-15T01:56:05.647Z,100532.47
2022-10-15T01:58:33.417Z,100532.47
2022-10-15T02:01:02.572Z,100526.66
2022-10-15T02:03:30.252Z,100522.19
2022-10-15T02:06:02.235Z,100528.63
2022-10-15T02:08:34.005Z,100523.44
2022-10-15T02:11:05.675Z,100508.25
2022-10-15T02:13:40.278Z,100516.75
2022-10-15T02:16:14.066Z,100516.75
2022-10-15T02:18:44.968Z,100513.28
2022-10-15T02:21:15.970Z,100507.97
2022-10-15T02:23:48.833Z,100509.91
2022-10-15T02:26:17.331Z,100506.44
2022-10-15T02:28:49.395Z,100499.63
2022-10-15T02:31:20.076Z,100510.78
2022-10-15T02:33:48.424Z,100502.13
2022-10-15T02:36:16.504Z,100512.72
2022-10-15T02:38:45.849Z,100509.38
2022-10-15T02:41:14.133Z,100498.63
2022-10-15T02:43:42.154Z,100502.41
2022-10-15T02:46:11.562Z,100485.41
2022-10-15T02:48:40.588Z,100499.75
2022-10-15T02:51:08.212Z,100497.13
2022-10-15T02:53:36.048Z,100501.44
2022-10-15T02:56:03.733Z,100489.44
2022-10-15T02:58:31.870Z,100489.44
2022-10-15T03:00:59.547Z,100490.41
2022-10-15T03:03:27.305Z,100479.44
2022-10-15T03:05:56.526Z,100483.34
2022-10-15T03:08:24.188Z,100496.59
2022-10-15T03:10:51.818Z,100474.03
2022-10-15T03:13:19.474Z,100474.97
2022-10-15T03:15:47.100Z,100472.94
2022-10-15T03:18:14.731Z,100480.03
2022-10-15T03:20:42.426Z,100481.28
2022-10-15T03:23:11.423Z,100483.94
2022-10-15T03:25:39.085Z,100468.47
2022-10-15T03:28:06.706Z,100483.13
2022-10-15T03:30:34.413Z,100479.31
2022-10-15T03:33:02.268Z,100486.28
2022-10-15T03:35:29.917Z,100488.00
2022-10-15T03:37:57.553Z,100477.41
2022-10-15T03:40:26.760Z,100479.91
2022-10-15T03:42:55.181Z,100475.28
2022-10-15T03:45:23.037Z,100471.63
2022-10-15T03:47:50.716Z,100466.50
2022-10-15T03:50:18.560Z,100460.34
2022-10-15T03:52:46.310Z,100454.91
2022-10-15T03:55:14.001Z,100458.13
2022-10-15T03:57:43.077Z,100454.47
2022-10-15T04:00:13.204Z,100445.53
2022-10-15T04:02:40.857Z,100448.19
2022-10-15T04:05:08.558Z,100439.41
2022-10-15T04:07:36.977Z,100445.22
2022-10-15T04:10:05.165Z,100448.59
2022-10-15T04:12:32.783Z,100443.28
2022-10-15T04:15:01.865Z,100437.84
2022-10-15T04:17:29.535Z,100444.97
2022-10-15T04:19:57.135Z,100442.16
2022-10-15T04:22:25.178Z,100435.34
2022-10-15T04:24:53.080Z,100437.00
2022-10-15T04:27:20.720Z,100435.19
2022-10-15T04:29:48.886Z,100429.88
2022-10-15T04:32:18.507Z,100443.28
2022-10-15T04:34:46.747Z,100436.28
2022-10-15T04:37:14.855Z,100438.13
2022-10-15T04:39:42.859Z,100438.00
2022-10-15T04:42:10.531Z,100440.66
2022-10-15T04:44:38.094Z,100443.41
2022-10-15T04:47:05.737Z,100446.53
2022-10-15T04:49:34.761Z,100456.81
2022-10-15T04:52:02.403Z,100451.69
2022-10-15T04:54:30.011Z,100455.16
2022-10-15T04:56:57.653Z,100450.84
2022-10-15T04:59:25.304Z,100453.50
2022-10-15T05:01:52.921Z,100457.13
2022-10-15T05:04:20.582Z,100447.50
2022-10-15T05:06:49.708Z,100448.47
2022-10-15T05:09:17.400Z,100440.50
2022-10-15T05:11:45.008Z,100446.53
2022-10-15T05:14:13.216Z,100452.66
2022-10-15T05:16:40.926Z,100455.00
2022-10-15T05:19:09.522Z,100456.66
2022-10-15T05:21:37.524Z,100459.19
2022-10-15T05:24:07.176Z,100454.75
2022-10-15T05:26:34.782Z,100461.84
2022-10-15T05:29:02.629Z,100469.66
2022-10-15T05:31:31.917Z,100459.19
2022-10-15T05:34:00.213Z,100461.69
2022-10-15T05:36:29.262Z,100463.53
2022-10-15T05:38:58.195Z,100455.56
2022-10-15T05:41:27.838Z,100457.91
2022-10-15T05:43:57.032Z,100462.22
2022-10-15T05:46:24.764Z,100465.19
2022-10-15T05:48:53.415Z,100463.38
2022-10-15T05:51:21.640Z,100467.00
2022-10-15T05:53:49.319Z,100464.19
2022-10-15T05:56:17.370Z,100465.88
2022-10-15T05:58:46.386Z,100465.19
2022-10-15T06:01:14.525Z,100450.25
2022-10-15T06:03:42.815Z,100467.84
2022-10-15T06:06:18.692Z,100465.88
2022-10-15T06:08:46.582Z,100471.72
2022-10-15T06:11:14.716Z,100466.28
2022-10-15T06:13:43.922Z,100470.88
2022-10-15T06:16:15.556Z,100471.72
2022-10-15T06:18:45.786Z,100473.66
2022-10-15T06:21:14.005Z,100466.56
2022-10-15T06:23:41.783Z,100462.91
2022-10-15T06:26:10.864Z,100468.94
2022-10-15T06:28:39.301Z,100467.25
2022-10-15T06:31:07.546Z,100463.63
2022-10-15T06:33:37.097Z,100466.44
2022-10-15T06:36:06.102Z,100459.59
2022-10-15T06:38:33.830Z,100457.91
2022-10-15T06:41:01.651Z,100458.91
2022-10-15T06:43:31.131Z,100456.94
2022-10-15T06:46:01.214Z,100461.97
2022-10-15T06:48:29.014Z,100472.69
2022-10-15T06:50:59.077Z,100478.00
2022-10-15T06:53:26.736Z,100481.19
2022-10-15T06:55:57.545Z,100477.56
2022-10-15T06:58:25.180Z,100470.28
2022-10-15T07:00:52.916Z,100482.28
2022-10-15T07:03:20.542Z,100477.81
2022-10-15T07:05:48.186Z,100481.72
2022-10-15T07:08:19.322Z,100481.41
2022-10-15T07:10:47.948Z,100482.78
2022-10-15T07:13:16.169Z,100492.69
2022-10-15T07:15:44.680Z,100483.47
2022-10-15T07:18:12.271Z,100482.50
2022-10-15T07:20:39.932Z,100480.53
2022-10-15T07:23:07.613Z,100484.00
2022-10-15T07:25:36.793Z,100474.94
2022-10-15T07:28:04.753Z,100476.59
2022-10-15T07:30:32.414Z,100476.59
2022-10-15T07:33:00.496Z,100478.28
2022-10-15T07:35:28.710Z,100481.59
2022-10-15T07:37:56.432Z,100482.28
2022-10-15T07:40:24.183Z,100486.47
2022-10-15T07:42:56.973Z,100487.16
2022-10-15T07:45:24.903Z,100487.16
2022-10-15T07:47:52.665Z,100489.66
2022-10-15T07:50:21.004Z,100484.06
2022-10-15T07:52:49.072Z,100480.44
2022-10-15T07:55:17.044Z,100489.22
2022-10-15T07:57:44.795Z,100492.72
2022-10-15T08:00:14.722Z,100479.72
2022-10-15T08:02:42.354Z,100486.72
2022-10-15T08:05:10.512Z,100487.56
2022-10-15T08:07:38.491Z,100477.94
2022-10-15T08:10:07.045Z,100479.03
2022-10-15T08:12:34.953Z,100479.88
2022-10-15T08:15:02.732Z,100484.06
2022-10-15T08:17:32.295Z,100487.69
2022-10-15T08:19:59.995Z,100488.66
2022-10-15T08:22:27.618Z,100492.03
2022-10-15T08:24:55.178Z,100486.00
2022-10-15T08:27:22.846Z,100486.56
2022-10-15T08:29:50.532Z,100492.56
2022-10-15T08:32:18.179Z,100500.50
2022-10-15T08:34:47.241Z,100488.75
2022-10-15T08:39:47.681Z,100497.44
2022-10-15T08:42:19.661Z,100493.63
2022-10-15T08:44:49.724Z,100489.31
2022-10-15T08:47:28.125Z,100497.81
2022-10-15T08:49:58.904Z,100481.22
2022-10-15T08:52:28.831Z,100488.19
2022-10-15T08:54:56.970Z,100490.94
2022-10-15T08:57:37.003Z,100481.00
2022-10-15T09:00:13.051Z,100475.25
2022-10-15T09:02:44.636Z,100472.44
2022-10-15T09:07:00.767Z,100478.75
2022-10-15T09:09:33.845Z,100472.91
2022-10-15T09:12:09.010Z,100476.09
2022-10-15T09:14:40.300Z,100477.75
2022-10-15T09:17:16.650Z,100474.25
2022-10-15T09:19:45.718Z,100467.44
2022-10-15T09:22:16.489Z,100458.81
2022-10-15T09:24:44.104Z,100449.84
2022-10-15T09:27:18.900Z,100450.53
2022-10-15T09:29:52.308Z,100436.50
2022-10-15T09:32:22.920Z,100441.66
2022-10-15T09:34:56.609Z,100431.03
2022-10-15T09:37:28.238Z,100410.09
2022-10-15T09:40:11.187Z,100416.81
2022-10-15T09:42:40.584Z,100421.03
2022-10-15T09:45:12.036Z,100417.22
2022-10-15T09:47:41.836Z,100410.41
2022-10-15T09:50:12.037Z,100414.94
2022-10-15T09:52:49.137Z,100405.00
2022-10-15T09:55:30.875Z,100407.03
2022-10-15T09:58:01.818Z,100406.56
2022-10-15T10:00:54.070Z,100406.59
2022-10-15T10:03:23.705Z,100414.44
2022-10-15T10:05:51.671Z,100412.97
2022-10-15T10:08:22.930Z,100409.81
2022-10-15T10:10:55.610Z,100429.13
2022-10-15T10:13:25.306Z,100423.16
2022-10-15T10:15:57.608Z,100422.53
2022-10-15T10:18:27.547Z,100414.91
2022-10-15T10:20:58.836Z,100401.31
2022-10-15T10:23:34.603Z,100400.31
2022-10-15T10:26:03.415Z,100395.22
2022-10-15T10:28:34.054Z,100384.03
2022-10-15T10:31:05.048Z,100398.75
2022-10-15T10:33:35.415Z,100385.13
2022-10-15T10:36:03.520Z,100382.22
2022-10-15T10:38:33.771Z,100358.63
2022-10-15T10:41:06.881Z,100360.00
2022-10-15T10:43:39.153Z,100359.53
2022-10-15T10:46:12.728Z,100359.19
2022-10-15T10:48:42.591Z,100356.03
2022-10-15T10:51:18.232Z,100364.66
2022-10-15T10:53:54.250Z,100366.34
2022-10-15T10:56:25.275Z,100357.34
2022-10-15T10:58:57.158Z,100350.22
2022-10-15T11:01:24.872Z,100347.38
2022-10-15T11:03:52.632Z,100336.06
2022-10-15T11:06:46.534Z,100339.09
2022-10-15T11:09:37.417Z,100330.59
2022-10-15T11:12:15.492Z,100341.94
2022-10-15T11:14:49.100Z,100331.13
2022-10-15T11:17:24.502Z,100346.09
2022-10-15T11:22:52.237Z,100342.09
2022-10-15T11:25:27.290Z,100349.75
2022-10-15T11:28:07.167Z,100336.44
2022-10-15T11:30:45.805Z,100331.44
2022-10-15T11:33:25.579Z,100335.63
2022-10-15T11:35:59.187Z,100335.09
2022-10-15T11:38:31.299Z,100343.78
2022-10-15T11:41:28.526Z,100337.59
2022-10-15T11:44:09.267Z,100326.28
2022-10-15T11:46:44.231Z,100325.28
2022-10-15T11:49:24.847Z,100316.66
2022-10-15T11:52:09.639Z,100309.31
2022-10-15T11:54:39.184Z,100306.19
2022-10-15T11:57:10.315Z,100300.69
2022-10-15T11:59:42.021Z,100296.19
2022-10-15T12:02:13.846Z,100299.03
2022-10-15T12:04:44.129Z,100299.84
2022-10-15T12:07:15.074Z,100297.38
2022-10-15T12:09:45.425Z,100296.53
2022-10-15T12:12:20.412Z,100298.19
2022-10-15T12:14:52.014Z,100292.88
2022-10-15T12:17:24.430Z,100292.53
2022-10-15T12:19:55.249Z,100299.84
2022-10-15T12:22:34.945Z,100299.03
2022-10-15T12:25:02.987Z,100292.03
2022-10-15T12:27:35.557Z,100276.41
2022-10-15T12:30:20.370Z,100275.75
2022-10-15T12:32:48.824Z,100282.72
2022-10-15T12:35:36.771Z,100269.28
2022-10-15T12:38:13.555Z,100270.59
2022-10-15T12:40:41.902Z,100266.28
2022-10-15T12:43:16.774Z,100266.13
2022-10-15T12:45:51.459Z,100270.25
2022-10-15T12:48:31.648Z,100255.16
2022-10-15T12:51:38.865Z,100258.47
2022-10-15T12:54:38.783Z,100253.66
2022-10-15T12:57:51.193Z,100257.81
2022-10-15T13:00:38.040Z,100256.00
2022-10-15T13:03:32.092Z,100257.47
2022-10-15T13:06:14.830Z,100245.66
2022-10-15T13:08:45.627Z,100247.31
2022-10-15T13:11:21.953Z,100251.34
2022-10-15T13:13:51.243Z,100252.00
2022-10-15T13:19:20.398Z,100241.84
2022-10-15T13:21:49.892Z,100248.00
2022-10-15T13:24:20.405Z,100254.81
2022-10-15T13:26:48.064Z,100238.69
2022-10-15T13:29:17.066Z,100250.00
2022-10-15T13:31:46.104Z,100251.66
2022-10-15T13:34:22.672Z,100256.00
2022-10-15T13:36:50.572Z,100254.63
2022-10-15T13:39:26.035Z,100255.16
2022-10-15T13:41:57.118Z,100245.00
2022-10-15T13:44:26.146Z,100258.28
2022-10-15T13:46:53.742Z,100263.13
2022-10-15T13:49:24.219Z,100262.78
2022-10-15T13:51:54.783Z,100268.63
2022-10-15T13:54:24.421Z,100264.13
2022-10-15T13:56:55.586Z,100255.13
2022-10-15T13:59:23.577Z,100257.28
2022-10-15T14:01:53.940Z,100259.59
2022-10-15T14:04:24.419Z,100275.94
2022-10-15T14:09:30.564Z,100266.63
2022-10-15T14:12:02.241Z,100260.31
2022-10-15T14:15:51.820Z,100267.94
2022-10-15T14:18:32.944Z,100262.97
2022-10-15T14:21:01.247Z,100265.91
2022-10-15T14:23:29.201Z,100270.91
2022-10-15T14:25:59.976Z,100283.53
2022-10-15T14:28:28.648Z,100276.53
2022-10-15T14:32:28.630Z,100274.53
2022-10-15T14:34:58.189Z,100280.53
2022-10-15T14:37:31.876Z,100275.88
2022-10-15T14:40:21.512Z,100273.88
2022-10-15T14:42:50.861Z,100247.63
2022-10-15T14:45:24.934Z,100276.25
2022-10-15T14:47:55.304Z,100281.56
2022-10-15T14:50:33.031Z,100275.72
2022-10-15T14:53:02.003Z,100288.19
2022-10-15T14:55:33.713Z,100289.88
2022-10-15T14:58:03.376Z,100283.88
2022-10-15T15:00:34.179Z,100285.06
2022-10-15T15:03:06.073Z,100293.88
2022-10-15T15:05:44.180Z,100300.81
2022-10-15T15:08:12.021Z,100288.53
2022-10-15T15:10:39.974Z,100289.88
2022-10-15T15:14:23.860Z,100308.81
2022-10-15T15:16:51.504Z,100308.47
2022-10-15T15:19:18.934Z,100318.91
2022-10-15T15:21:46.729Z,100326.41
2022-10-15T15:24:14.481Z,100325.09
2022-10-15T15:26:42.049Z,100325.84
2022-10-15T15:29:13.712Z,100328.78
2022-10-15T15:31:42.966Z,100335.09
2022-10-15T15:34:10.660Z,100330.28
2022-10-15T15:36:38.253Z,100324.28
2022-10-15T15:39:05.900Z,100327.19
2022-10-15T15:41:33.830Z,100311.69
2022-10-15T15:44:01.789Z,100313.00
2022-10-15T15:46:29.446Z,100318.88
2022-10-15T15:48:59.076Z,100333.31
2022-10-15T15:52:56.969Z,100338.47
2022-10-15T15:55:24.401Z,100336.91
2022-10-15T15:57:52.427Z,100348.38
2022-10-15T16:00:20.504Z,100357.34
2022-10-15T16:02:48.042Z,100358.47
2022-10-15T16:05:16.487Z,100347.91
2022-10-15T16:07:44.039Z,100362.81
2022-10-15T16:10:13.022Z,100364.31
2022-10-15T16:12:40.890Z,100376.66
2022-10-15T16:15:13.398Z,100375.31
2022-10-15T16:17:42.619Z,100378.69
2022-10-15T16:20:12.153Z,100380.78
2022-10-15T16:22:39.849Z,100396.19
2022-10-15T16:25:08.775Z,100400.19
2022-10-15T16:27:37.804Z,100410.13
2022-10-15T16:30:06.313Z,100410.59
2022-10-15T16:32:33.992Z,100418.19
2022-10-15T16:35:01.628Z,100421.84
2022-10-15T16:37:29.281Z,100421.31
2022-10-15T16:39:57.058Z,100434.22
2022-10-15T16:42:24.969Z,100433.75
2022-10-15T16:44:53.943Z,100427.66
2022-10-15T16:47:22.090Z,100434.75
2022-10-15T16:49:50.026Z,100442.22
2022-10-15T16:52:17.808Z,100443.00
2022-10-15T16:54:45.403Z,100433.69
2022-10-15T16:57:13.048Z,100442.22
2022-10-15T16:59:40.566Z,100441.31
2022-10-15T17:02:10.332Z,100450.91
2022-10-15T17:06:25.501Z,100473.38
2022-10-15T17:08:54.314Z,100483.78
2022-10-15T17:11:23.077Z,100477.78
2022-10-15T17:13:52.111Z,100486.13
2022-10-15T17:16:21.578Z,100484.13
2022-10-15T17:21:02.009Z,100489.00
2022-10-15T17:23:30.743Z,100495.81
2022-10-15T17:25:58.344Z,100495.81
2022-10-15T17:28:26.080Z,100504.13
2022-10-15T17:30:53.700Z,100509.13
2022-10-15T17:33:21.316Z,100510.13
2022-10-15T17:35:48.874Z,100520.75
2022-10-15T17:38:20.472Z,100528.06
2022-10-15T17:40:50.219Z,100535.41
2022-10-15T17:43:17.831Z,100546.03
2022-10-15T17:45:45.376Z,100533.66
2022-10-15T17:48:13.086Z,100556.97
2022-10-15T17:50:45.218Z,100564.28
2022-10-15T17:53:13.311Z,100564.75
2022-10-15T17:55:42.338Z,100571.25
2022-10-15T17:58:10.020Z,100581.22
2022-10-15T18:00:37.755Z,100583.88
2022-10-15T18:03:05.451Z,100579.53
2022-10-15T18:05:33.198Z,100581.38
2022-10-15T18:08:01.475Z,100584.88
2022-10-15T18:10:29.071Z,100590.19
2022-10-15T18:12:58.163Z,100585.16
2022-10-15T18:15:25.806Z,100591.63
2022-10-15T18:17:53.392Z,100595.75
2022-10-15T18:20:21.023Z,100595.25
2022-10-15T18:22:48.675Z,100604.06
2022-10-15T18:25:16.426Z,100599.03
2022-10-15T18:27:44.039Z,100600.00
2022-10-15T18:30:13.118Z,100613.63
2022-10-15T18:32:40.786Z,100611.97
2022-10-15T18:35:08.814Z,100620.94
2022-10-15T18:37:36.431Z,100632.41
2022-10-15T18:40:04.261Z,100633.53
2022-10-15T18:42:31.924Z,100632.69
2022-10-15T18:44:59.583Z,100635.19
2022-10-15T18:47:28.674Z,100636.50
2022-10-15T18:49:56.266Z,100642.81
2022-10-15T18:52:38.688Z,100642.16
2022-10-15T18:55:08.488Z,100652.47
2022-10-15T18:57:36.118Z,100645.47
2022-10-15T19:00:05.232Z,100651.78
2022-10-15T19:02:34.257Z,100646.47
2022-10-15T19:05:01.830Z,100645.78
2022-10-15T19:07:31.689Z,100643.13
2022-10-15T19:09:59.460Z,100634.47
2022-10-15T19:12:27.463Z,100631.94
2022-10-15T19:14:55.416Z,100625.22
2022-10-15T19:17:23.194Z,100636.41
2022-10-15T19:19:52.177Z,100642.88
2022-10-15T19:22:19.832Z,100636.72
2022-10-15T19:24:47.519Z,100635.03
2022-10-15T19:27:15.351Z,100642.34
2022-10-15T19:29:42.998Z,100644.31
2022-10-15T19:32:10.954Z,100640.66
2022-10-15T19:34:38.591Z,100657.78
2022-10-15T19:37:07.598Z,100660.56
2022-10-15T19:39:35.693Z,100661.53
2022-10-15T19:42:03.669Z,100655.56
2022-10-15T19:44:31.275Z,100654.72
2022-10-15T19:46:59.062Z,100661.03
2022-10-15T19:49:26.683Z,100654.22
2022-10-15T19:51:55.560Z,100658.66
2022-10-15T19:56:53.120Z,100661.47
2022-10-15T19:59:20.743Z,100667.09
2022-10-15T20:01:48.309Z,100664.44
2022-10-15T20:04:16.042Z,100675.06
2022-10-15T20:06:43.661Z,100665.44
2022-10-15T20:09:11.266Z,100673.56
2022-10-15T20:11:40.318Z,100672.19
2022-10-15T20:14:08.252Z,100669.69
2022-10-15T20:16:35.882Z,100675.16
2022-10-15T20:19:04.072Z,100672.78
2022-10-15T20:21:31.976Z,100680.91
2022-10-15T20:24:03.772Z,100682.88
2022-10-15T20:26:31.367Z,100679.50
2022-10-15T20:29:00.630Z,100682.31
2022-10-15T20:31:32.664Z,100686.81
2022-10-15T20:34:01.012Z,100686.81
2022-10-15T20:36:28.712Z,100690.28
2022-10-15T20:38:57.514Z,100691.44
2022-10-15T20:41:25.261Z,100697.59
2022-10-15T20:43:55.086Z,100689.78
2022-10-15T20:46:28.135Z,100700.25
2022-10-15T20:48:57.377Z,100699.72
2022-10-15T20:51:28.406Z,100707.81
2022-10-15T20:53:56.784Z,100706.00
2022-10-15T20:56:24.608Z,100706.00
2022-10-15T20:58:52.214Z,100714.69
2022-10-15T21:01:20.469Z,100712.03
2022-10-15T21:03:49.491Z,100714.78
2022-10-15T21:06:17.162Z,100706.97
2022-10-15T21:08:44.771Z,100715.66
2022-10-15T21:11:12.407Z,100721.94
2022-10-15T21:13:40.216Z,100719.59
2022-10-15T21:16:08.569Z,100727.56
2022-10-15T21:18:36.997Z,100736.19
2022-10-15T21:21:08.044Z,100703.69
2022-10-15T21:23:36.006Z,100728.53
2022-10-15T21:26:07.218Z,100728.53
2022-10-15T21:28:35.381Z,100724.06
2022-10-15T21:31:05.628Z,100730.53
2022-10-15T21:33:33.369Z,100738.34
2022-10-15T21:36:11.912Z,100735.84
2022-10-15T21:38:39.521Z,100735.13
2022-10-15T21:41:07.238Z,100723.81
2022-10-15T21:43:35.022Z,100740.59
2022-10-15T21:46:07.147Z,100744.22
2022-10-15T21:48:36.513Z,100754.69
2022-10-15T21:51:04.481Z,100751.06
2022-10-15T21:53:33.906Z,100752.03
2022-10-15T21:56:02.172Z,100755.38
2022-10-15T21:58:30.102Z,100760.69
2022-10-15T22:00:57.772Z,100762.41
2022-10-15T22:03:25.742Z,100760.56
2022-10-15T22:05:53.382Z,100766.88
2022-10-15T22:08:20.995Z,100761.56
2022-10-15T22:10:50.113Z,100762.50
2022-10-15T22:13:17.738Z,100764.34
2022-10-15T22:15:45.339Z,100771.63
2022-10-15T22:18:12.983Z,100782.56
2022-10-15T22:23:09.228Z,100772.91
2022-10-15T22:25:37.041Z,100786.19
2022-10-15T22:28:06.396Z,100778.22
2022-10-15T22:30:35.781Z,100779.19
2022-10-15T22:33:03.559Z,100784.81
2022-10-15T22:35:33.907Z,100782.44
2022-10-15T22:38:01.531Z,100786.78
2022-10-15T22:40:29.154Z,100784.94
2022-10-15T22:42:57.073Z,100781.47
2022-10-15T22:45:26.132Z,100780.75
2022-10-15T22:47:53.742Z,100783.13
2022-10-15T22:50:21.335Z,100786.47
2022-10-15T22:52:48.899Z,100782.00
2022-10-15T22:55:16.517Z,100784.81
2022-10-15T22:57:44.121Z,100780.31
2022-10-15T23:00:13.256Z,100780.63
2022-10-15T23:02:42.268Z,100790.13
2022-10-15T23:05:10.327Z,100783.13
2022-10-15T23:07:39.825Z,100783.13
2022-10-15T23:10:08.443Z,100789.44
2022-10-15T23:12:37.346Z,100783.28
2022-10-15T23:15:05.971Z,100790.41
2022-10-15T23:17:33.906Z,100787.34
2022-10-15T23:20:02.952Z,100790.97
2022-10-15T23:22:30.579Z,100797.41
2022-10-15T23:24:58.205Z,100789.59
2022-10-15T23:27:26.066Z,100787.06
2022-10-15T23:30:01.970Z,100789.59
2022-10-15T23:32:41.590Z,100801.88
2022-10-15T23:35:12.266Z,100782.06
2022-10-15T23:37:41.367Z,100799.09
2022-10-15T23:40:10.407Z,100794.63
2022-10-15T23:42:38.017Z,100796.44
2022-10-15T23:45:06.375Z,100797.28
2022-10-15T23:47:34.046Z,100796.56
2022-10-15T23:50:01.638Z,100803.69
2022-10-15T23:52:32.481Z,100793.53
2022-10-15T23:55:00.102Z,100807.50
2022-10-15T23:57:28.114Z,100799.53
2022-10-15T23:59:55.925Z,100794.63
